sensor_id;sensor_type;location;lat;lon;timestamp;P1;durP1;ratioP1;P2;durP2;ratioP2
735;SDS011;352;48.626;9.238;2023-04-25T00:02:16;4.32;;;4.03;;
735;SDS011;352;48.626;9.238;2023-04-25T00:04:43;5.18;;;4.10;;
735;SDS011;352;48.626;9.238;2023-04-25T00:07:09;5.95;;;3.83;;
735;SDS011;352;48.626;9.238;2023-04-25T00:09:37;3.63;;;3.33;;
735;SDS011;352;48.626;9.238;2023-04-25T00:12:04;2.97;;;2.78;;
735;SDS011;352;48.626;9.238;2023-04-25T00:14:31;4.53;;;3.75;;
735;SDS011;352;48.626;9.238;2023-04-25T00:17:00;3.80;;;3.38;;
735;SDS011;352;48.626;9.238;2023-04-25T00:19:27;3.33;;;3.13;;
735;SDS011;352;48.626;9.238;2023-04-25T00:21:54;3.65;;;3.35;;
735;SDS011;352;48.626;9.238;2023-04-25T00:24:21;3.00;;;2.80;;
735;SDS011;352;48.626;9.238;2023-04-25T00:26:49;3.38;;;3.15;;
735;SDS011;352;48.626;9.238;2023-04-25T00:29:16;3.95;;;3.10;;
735;SDS011;352;48.626;9.238;2023-04-25T00:31:42;2.97;;;2.78;;
735;SDS011;352;48.626;9.238;2023-04-25T00:34:09;4.47;;;3.22;;
735;SDS011;352;48.626;9.238;2023-04-25T00:36:36;3.50;;;3.20;;
735;SDS011;352;48.626;9.238;2023-04-25T00:39:03;4.25;;;3.85;;
735;SDS011;352;48.626;9.238;2023-04-25T00:41:31;4.25;;;3.85;;
735;SDS011;352;48.626;9.238;2023-04-25T00:44:00;4.28;;;3.90;;
735;SDS011;352;48.626;9.238;2023-04-25T00:46:28;4.75;;;4.10;;
735;SDS011;352;48.626;9.238;2023-04-25T00:48:55;4.03;;;3.72;;
735;SDS011;352;48.626;9.238;2023-04-25T00:51:22;3.45;;;3.15;;
735;SDS011;352;48.626;9.238;2023-04-25T00:53:50;4.18;;;3.88;;
735;SDS011;352;48.626;9.238;2023-04-25T00:56:17;4.25;;;3.85;;
735;SDS011;352;48.626;9.238;2023-04-25T00:58:44;4.57;;;4.18;;
735;SDS011;352;48.626;9.238;2023-04-25T01:01:12;3.90;;;3.60;;
735;SDS011;352;48.626;9.238;2023-04-25T01:03:40;4.20;;;3.90;;
735;SDS011;352;48.626;9.238;2023-04-25T01:06:07;3.95;;;3.65;;
735;SDS011;352;48.626;9.238;2023-04-25T01:08:35;3.53;;;3.22;;
735;SDS011;352;48.626;9.238;2023-04-25T01:11:03;4.40;;;4.00;;
735;SDS011;352;48.626;9.238;2023-04-25T01:13:30;4.20;;;3.80;;
735;SDS011;352;48.626;9.238;2023-04-25T01:15:57;5.15;;;3.60;;
735;SDS011;352;48.626;9.238;2023-04-25T01:18:25;4.43;;;4.00;;
735;SDS011;352;48.626;9.238;2023-04-25T01:20:52;4.20;;;3.90;;
735;SDS011;352;48.626;9.238;2023-04-25T01:23:21;4.05;;;3.35;;
735;SDS011;352;48.626;9.238;2023-04-25T01:25:49;3.28;;;3.08;;
735;SDS011;352;48.626;9.238;2023-04-25T01:28:16;4.13;;;3.80;;
735;SDS011;352;48.626;9.238;2023-04-25T01:30:43;4.07;;;3.75;;
735;SDS011;352;48.626;9.238;2023-04-25T01:33:11;4.00;;;3.70;;
735;SDS011;352;48.626;9.238;2023-04-25T01:35:40;4.22;;;3.45;;
735;SDS011;352;48.626;9.238;2023-04-25T01:38:06;4.85;;;3.75;;
735;SDS011;352;48.626;9.238;2023-04-25T01:40:35;4.85;;;3.75;;
735;SDS011;352;48.626;9.238;2023-04-25T01:43:06;4.07;;;3.65;;
735;SDS011;352;48.626;9.238;2023-04-25T01:45:33;5.97;;;3.80;;
735;SDS011;352;48.626;9.238;2023-04-25T01:48:01;7.13;;;4.00;;
735;SDS011;352;48.626;9.238;2023-04-25T01:50:28;4.18;;;3.78;;
735;SDS011;352;48.626;9.238;2023-04-25T01:52:55;3.83;;;3.53;;
735;SDS011;352;48.626;9.238;2023-04-25T01:55:22;5.85;;;3.58;;
735;SDS011;352;48.626;9.238;2023-04-25T01:57:50;3.88;;;3.45;;
735;SDS011;352;48.626;9.238;2023-04-25T02:00:17;5.18;;;3.90;;
735;SDS011;352;48.626;9.238;2023-04-25T02:02:44;4.10;;;3.80;;
735;SDS011;352;48.626;9.238;2023-04-25T02:05:11;3.93;;;3.27;;
735;SDS011;352;48.626;9.238;2023-04-25T02:07:37;3.83;;;3.42;;
735;SDS011;352;48.626;9.238;2023-04-25T02:10:04;3.88;;;3.35;;
735;SDS011;352;48.626;9.238;2023-04-25T02:12:31;3.25;;;2.97;;
735;SDS011;352;48.626;9.238;2023-04-25T02:15:00;3.58;;;2.90;;
735;SDS011;352;48.626;9.238;2023-04-25T02:17:26;4.00;;;3.60;;
735;SDS011;352;48.626;9.238;2023-04-25T02:19:53;4.60;;;4.20;;
735;SDS011;352;48.626;9.238;2023-04-25T02:22:20;4.40;;;4.00;;
735;SDS011;352;48.626;9.238;2023-04-25T02:24:46;6.07;;;4.15;;
735;SDS011;352;48.626;9.238;2023-04-25T02:27:13;5.75;;;3.47;;
735;SDS011;352;48.626;9.238;2023-04-25T02:29:40;4.38;;;3.95;;
735;SDS011;352;48.626;9.238;2023-04-25T02:32:08;4.25;;;3.85;;
735;SDS011;352;48.626;9.238;2023-04-25T02:34:35;4.95;;;3.65;;
735;SDS011;352;48.626;9.238;2023-04-25T02:37:02;6.15;;;4.13;;
735;SDS011;352;48.626;9.238;2023-04-25T02:39:29;4.65;;;3.85;;
735;SDS011;352;48.626;9.238;2023-04-25T02:41:55;4.25;;;3.85;;
735;SDS011;352;48.626;9.238;2023-04-25T02:44:22;6.05;;;3.92;;
735;SDS011;352;48.626;9.238;2023-04-25T02:46:49;4.80;;;4.10;;
735;SDS011;352;48.626;9.238;2023-04-25T02:49:17;4.70;;;4.30;;
735;SDS011;352;48.626;9.238;2023-04-25T02:51:43;4.75;;;4.35;;
735;SDS011;352;48.626;9.238;2023-04-25T02:54:10;3.90;;;3.60;;
735;SDS011;352;48.626;9.238;2023-04-25T02:56:37;4.63;;;4.20;;
735;SDS011;352;48.626;9.238;2023-04-25T02:59:03;6.63;;;4.40;;
735;SDS011;352;48.626;9.238;2023-04-25T03:01:30;7.32;;;4.82;;
735;SDS011;352;48.626;9.238;2023-04-25T03:03:57;5.15;;;3.95;;
735;SDS011;352;48.626;9.238;2023-04-25T03:06:25;4.18;;;3.78;;
735;SDS011;352;48.626;9.238;2023-04-25T03:08:52;7.95;;;4.45;;
735;SDS011;352;48.626;9.238;2023-04-25T03:11:19;3.92;;;3.63;;
735;SDS011;352;48.626;9.238;2023-04-25T03:13:46;8.23;;;4.35;;
735;SDS011;352;48.626;9.238;2023-04-25T03:16:13;4.60;;;4.20;;
735;SDS011;352;48.626;9.238;2023-04-25T03:18:39;5.18;;;4.22;;
735;SDS011;352;48.626;9.238;2023-04-25T03:21:06;6.10;;;4.45;;
735;SDS011;352;48.626;9.238;2023-04-25T03:23:34;4.95;;;4.60;;
735;SDS011;352;48.626;9.238;2023-04-25T03:26:01;5.10;;;4.45;;
735;SDS011;352;48.626;9.238;2023-04-25T03:28:28;6.18;;;4.28;;
735;SDS011;352;48.626;9.238;2023-04-25T03:30:54;7.82;;;4.95;;
735;SDS011;352;48.626;9.238;2023-04-25T03:33:21;4.80;;;4.40;;
735;SDS011;352;48.626;9.238;2023-04-25T03:35:48;5.20;;;4.70;;
735;SDS011;352;48.626;9.238;2023-04-25T03:38:15;5.18;;;4.70;;
735;SDS011;352;48.626;9.238;2023-04-25T03:40:44;4.70;;;4.25;;
735;SDS011;352;48.626;9.238;2023-04-25T03:43:10;5.95;;;4.68;;
735;SDS011;352;48.626;9.238;2023-04-25T03:45:37;5.78;;;4.65;;
735;SDS011;352;48.626;9.238;2023-04-25T03:48:04;5.32;;;4.82;;
735;SDS011;352;48.626;9.238;2023-04-25T03:50:30;5.30;;;4.47;;
735;SDS011;352;48.626;9.238;2023-04-25T03:52:57;6.57;;;4.60;;
735;SDS011;352;48.626;9.238;2023-04-25T03:55:24;4.65;;;4.10;;
735;SDS011;352;48.626;9.238;2023-04-25T03:57:52;5.07;;;4.38;;
735;SDS011;352;48.626;9.238;2023-04-25T04:00:19;5.30;;;4.80;;
735;SDS011;352;48.626;9.238;2023-04-25T04:02:45;5.40;;;4.85;;
735;SDS011;352;48.626;9.238;2023-04-25T04:05:12;5.25;;;4.38;;
735;SDS011;352;48.626;9.238;2023-04-25T04:07:39;5.95;;;4.90;;
735;SDS011;352;48.626;9.238;2023-04-25T04:10:07;5.00;;;4.60;;
735;SDS011;352;48.626;9.238;2023-04-25T04:12:35;5.70;;;5.28;;
735;SDS011;352;48.626;9.238;2023-04-25T04:15:03;6.45;;;5.28;;
735;SDS011;352;48.626;9.238;2023-04-25T04:17:30;5.53;;;5.03;;
735;SDS011;352;48.626;9.238;2023-04-25T04:19:57;5.25;;;4.75;;
735;SDS011;352;48.626;9.238;2023-04-25T04:22:24;7.95;;;6.25;;
735;SDS011;352;48.626;9.238;2023-04-25T04:24:51;5.60;;;5.10;;
735;SDS011;352;48.626;9.238;2023-04-25T04:27:19;6.35;;;5.72;;
735;SDS011;352;48.626;9.238;2023-04-25T04:29:48;5.50;;;5.00;;
735;SDS011;352;48.626;9.238;2023-04-25T04:32:18;7.10;;;6.40;;
735;SDS011;352;48.626;9.238;2023-04-25T04:34:45;6.60;;;6.00;;
735;SDS011;352;48.626;9.238;2023-04-25T04:37:13;8.55;;;5.00;;
735;SDS011;352;48.626;9.238;2023-04-25T04:39:40;6.28;;;5.53;;
735;SDS011;352;48.626;9.238;2023-04-25T04:42:07;6.20;;;5.60;;
735;SDS011;352;48.626;9.238;2023-04-25T04:44:34;7.63;;;5.35;;
735;SDS011;352;48.626;9.238;2023-04-25T04:47:01;10.45;;;6.88;;
735;SDS011;352;48.626;9.238;2023-04-25T04:49:33;7.50;;;6.80;;
735;SDS011;352;48.626;9.238;2023-04-25T04:52:00;8.60;;;5.60;;
735;SDS011;352;48.626;9.238;2023-04-25T04:54:26;5.93;;;5.43;;
735;SDS011;352;48.626;9.238;2023-04-25T04:56:53;6.53;;;4.65;;
735;SDS011;352;48.626;9.238;2023-04-25T04:59:20;6.00;;;5.55;;
735;SDS011;352;48.626;9.238;2023-04-25T05:01:47;5.35;;;4.85;;
735;SDS011;352;48.626;9.238;2023-04-25T05:04:13;5.25;;;4.72;;
735;SDS011;352;48.626;9.238;2023-04-25T05:06:41;6.07;;;5.57;;
735;SDS011;352;48.626;9.238;2023-04-25T05:09:09;6.30;;;4.90;;
735;SDS011;352;48.626;9.238;2023-04-25T05:11:36;5.90;;;5.05;;
735;SDS011;352;48.626;9.238;2023-04-25T05:14:02;5.90;;;5.15;;
735;SDS011;352;48.626;9.238;2023-04-25T05:16:29;5.10;;;4.68;;
735;SDS011;352;48.626;9.238;2023-04-25T05:18:56;5.80;;;5.30;;
735;SDS011;352;48.626;9.238;2023-04-25T05:21:22;5.00;;;3.80;;
735;SDS011;352;48.626;9.238;2023-04-25T05:23:50;6.30;;;5.45;;
735;SDS011;352;48.626;9.238;2023-04-25T05:26:17;5.40;;;4.75;;
735;SDS011;352;48.626;9.238;2023-04-25T05:28:44;5.53;;;4.80;;
735;SDS011;352;48.626;9.238;2023-04-25T05:31:10;6.25;;;5.75;;
735;SDS011;352;48.626;9.238;2023-04-25T05:33:37;7.43;;;5.47;;
735;SDS011;352;48.626;9.238;2023-04-25T05:36:04;5.60;;;5.10;;
735;SDS011;352;48.626;9.238;2023-04-25T05:38:32;4.60;;;4.28;;
735;SDS011;352;48.626;9.238;2023-04-25T05:41:00;5.15;;;4.75;;
735;SDS011;352;48.626;9.238;2023-04-25T05:43:26;5.85;;;4.55;;
735;SDS011;352;48.626;9.238;2023-04-25T05:45:53;4.43;;;4.13;;
735;SDS011;352;48.626;9.238;2023-04-25T05:48:20;5.18;;;4.70;;
735;SDS011;352;48.626;9.238;2023-04-25T05:50:47;11.80;;;5.05;;
735;SDS011;352;48.626;9.238;2023-04-25T05:53:13;4.95;;;4.30;;
735;SDS011;352;48.626;9.238;2023-04-25T05:55:40;5.10;;;4.70;;
735;SDS011;352;48.626;9.238;2023-04-25T05:58:08;5.18;;;4.78;;
735;SDS011;352;48.626;9.238;2023-04-25T06:00:35;5.72;;;5.20;;
735;SDS011;352;48.626;9.238;2023-04-25T06:03:02;5.78;;;5.28;;
735;SDS011;352;48.626;9.238;2023-04-25T06:05:29;6.05;;;5.55;;
735;SDS011;352;48.626;9.238;2023-04-25T06:07:56;5.25;;;4.78;;
735;SDS011;352;48.626;9.238;2023-04-25T06:10:22;9.02;;;5.10;;
735;SDS011;352;48.626;9.238;2023-04-25T06:12:49;4.72;;;4.30;;
735;SDS011;352;48.626;9.238;2023-04-25T06:15:17;6.28;;;5.68;;
735;SDS011;352;48.626;9.238;2023-04-25T06:17:44;5.10;;;4.63;;
735;SDS011;352;48.626;9.238;2023-04-25T06:20:11;5.40;;;4.90;;
735;SDS011;352;48.626;9.238;2023-04-25T06:22:38;4.30;;;4.07;;
735;SDS011;352;48.626;9.238;2023-04-25T06:25:05;6.47;;;4.63;;
735;SDS011;352;48.626;9.238;2023-04-25T06:27:32;5.77;;;4.20;;
735;SDS011;352;48.626;9.238;2023-04-25T06:29:59;4.30;;;4.00;;
735;SDS011;352;48.626;9.238;2023-04-25T06:32:27;4.37;;;4.07;;
735;SDS011;352;48.626;9.238;2023-04-25T06:34:54;4.73;;;4.30;;
735;SDS011;352;48.626;9.238;2023-04-25T06:37:21;4.60;;;4.00;;
735;SDS011;352;48.626;9.238;2023-04-25T06:39:48;5.43;;;4.93;;
735;SDS011;352;48.626;9.238;2023-04-25T06:42:15;5.50;;;4.90;;
735;SDS011;352;48.626;9.238;2023-04-25T06:44:41;5.30;;;4.80;;
735;SDS011;352;48.626;9.238;2023-04-25T06:47:08;5.70;;;4.90;;
735;SDS011;352;48.626;9.238;2023-04-25T06:49:36;4.90;;;4.50;;
735;SDS011;352;48.626;9.238;2023-04-25T06:52:03;5.40;;;4.90;;
735;SDS011;352;48.626;9.238;2023-04-25T06:54:29;5.20;;;4.70;;
735;SDS011;352;48.626;9.238;2023-04-25T06:56:56;5.90;;;5.20;;
735;SDS011;352;48.626;9.238;2023-04-25T06:59:23;5.20;;;4.70;;
735;SDS011;352;48.626;9.238;2023-04-25T07:01:49;5.97;;;5.37;;
735;SDS011;352;48.626;9.238;2023-04-25T07:04:16;6.73;;;5.30;;
735;SDS011;352;48.626;9.238;2023-04-25T07:06:44;5.80;;;5.20;;
735;SDS011;352;48.626;9.238;2023-04-25T07:09:13;5.20;;;4.80;;
735;SDS011;352;48.626;9.238;2023-04-25T07:11:40;5.30;;;4.80;;
735;SDS011;352;48.626;9.238;2023-04-25T07:14:06;4.90;;;4.40;;
735;SDS011;352;48.626;9.238;2023-04-25T07:16:33;6.70;;;4.97;;
735;SDS011;352;48.626;9.238;2023-04-25T07:19:00;4.75;;;4.35;;
735;SDS011;352;48.626;9.238;2023-04-25T07:21:26;6.80;;;6.05;;
735;SDS011;352;48.626;9.238;2023-04-25T07:23:54;5.93;;;5.30;;
735;SDS011;352;48.626;9.238;2023-04-25T07:26:21;6.90;;;5.57;;
735;SDS011;352;48.626;9.238;2023-04-25T07:28:48;5.70;;;5.30;;
735;SDS011;352;48.626;9.238;2023-04-25T07:31:16;5.85;;;5.35;;
735;SDS011;352;48.626;9.238;2023-04-25T07:33:43;9.90;;;5.20;;
735;SDS011;352;48.626;9.238;2023-04-25T07:36:10;6.23;;;5.63;;
735;SDS011;352;48.626;9.238;2023-04-25T07:38:37;5.50;;;4.95;;
735;SDS011;352;48.626;9.238;2023-04-25T07:41:05;7.57;;;5.60;;
735;SDS011;352;48.626;9.238;2023-04-25T07:43:32;5.07;;;4.65;;
735;SDS011;352;48.626;9.238;2023-04-25T07:45:58;5.97;;;5.37;;
735;SDS011;352;48.626;9.238;2023-04-25T07:48:25;6.00;;;5.50;;
735;SDS011;352;48.626;9.238;2023-04-25T07:50:52;6.30;;;5.40;;
735;SDS011;352;48.626;9.238;2023-04-25T07:53:19;5.97;;;5.40;;
735;SDS011;352;48.626;9.238;2023-04-25T07:55:45;5.65;;;4.88;;
735;SDS011;352;48.626;9.238;2023-04-25T07:58:13;6.53;;;5.93;;
735;SDS011;352;48.626;9.238;2023-04-25T08:00:40;8.85;;;7.00;;
735;SDS011;352;48.626;9.238;2023-04-25T08:03:09;6.90;;;6.30;;
735;SDS011;352;48.626;9.238;2023-04-25T08:05:35;6.10;;;5.60;;
735;SDS011;352;48.626;9.238;2023-04-25T08:08:02;6.03;;;5.53;;
735;SDS011;352;48.626;9.238;2023-04-25T08:10:31;7.38;;;6.20;;
735;SDS011;352;48.626;9.238;2023-04-25T08:12:58;6.18;;;5.57;;
735;SDS011;352;48.626;9.238;2023-04-25T08:15:27;6.87;;;5.77;;
735;SDS011;352;48.626;9.238;2023-04-25T08:17:53;5.03;;;4.63;;
735;SDS011;352;48.626;9.238;2023-04-25T08:20:20;5.68;;;5.18;;
735;SDS011;352;48.626;9.238;2023-04-25T08:22:47;6.20;;;5.55;;
735;SDS011;352;48.626;9.238;2023-04-25T08:25:14;8.17;;;5.10;;
735;SDS011;352;48.626;9.238;2023-04-25T08:27:41;7.18;;;5.78;;
735;SDS011;352;48.626;9.238;2023-04-25T08:30:08;6.63;;;6.03;;
735;SDS011;352;48.626;9.238;2023-04-25T08:32:36;5.70;;;5.05;;
735;SDS011;352;48.626;9.238;2023-04-25T08:35:04;9.60;;;6.60;;
735;SDS011;352;48.626;9.238;2023-04-25T08:37:31;7.55;;;5.10;;
735;SDS011;352;48.626;9.238;2023-04-25T08:39:58;6.30;;;5.80;;
735;SDS011;352;48.626;9.238;2023-04-25T08:42:26;6.88;;;6.18;;
735;SDS011;352;48.626;9.238;2023-04-25T08:44:53;5.82;;;5.25;;
735;SDS011;352;48.626;9.238;2023-04-25T08:47:21;6.38;;;5.00;;
735;SDS011;352;48.626;9.238;2023-04-25T08:49:50;5.97;;;5.47;;
735;SDS011;352;48.626;9.238;2023-04-25T08:52:20;6.55;;;5.80;;
735;SDS011;352;48.626;9.238;2023-04-25T08:54:48;5.80;;;5.30;;
735;SDS011;352;48.626;9.238;2023-04-25T08:57:17;5.63;;;5.13;;
735;SDS011;352;48.626;9.238;2023-04-25T08:59:45;5.90;;;5.40;;
735;SDS011;352;48.626;9.238;2023-04-25T09:02:13;5.53;;;5.07;;
735;SDS011;352;48.626;9.238;2023-04-25T09:04:42;5.97;;;5.38;;
735;SDS011;352;48.626;9.238;2023-04-25T09:07:11;7.05;;;6.35;;
735;SDS011;352;48.626;9.238;2023-04-25T09:09:40;6.57;;;6.07;;
735;SDS011;352;48.626;9.238;2023-04-25T09:12:07;7.05;;;5.55;;
735;SDS011;352;48.626;9.238;2023-04-25T09:14:34;6.50;;;5.90;;
735;SDS011;352;48.626;9.238;2023-04-25T09:17:02;6.35;;;5.85;;
735;SDS011;352;48.626;9.238;2023-04-25T09:19:31;6.80;;;6.07;;
735;SDS011;352;48.626;9.238;2023-04-25T09:22:00;7.05;;;6.45;;
735;SDS011;352;48.626;9.238;2023-04-25T09:24:31;6.90;;;6.20;;
735;SDS011;352;48.626;9.238;2023-04-25T09:26:59;7.03;;;5.80;;
735;SDS011;352;48.626;9.238;2023-04-25T09:29:30;6.68;;;6.07;;
735;SDS011;352;48.626;9.238;2023-04-25T09:32:15;6.95;;;5.95;;
735;SDS011;352;48.626;9.238;2023-04-25T09:34:44;6.50;;;6.00;;
735;SDS011;352;48.626;9.238;2023-04-25T09:37:16;7.35;;;6.57;;
735;SDS011;352;48.626;9.238;2023-04-25T09:39:45;7.35;;;6.65;;
735;SDS011;352;48.626;9.238;2023-04-25T09:42:12;8.10;;;7.30;;
735;SDS011;352;48.626;9.238;2023-04-25T09:44:41;6.28;;;5.68;;
735;SDS011;352;48.626;9.238;2023-04-25T09:47:09;7.37;;;6.57;;
735;SDS011;352;48.626;9.238;2023-04-25T09:49:38;7.50;;;5.78;;
735;SDS011;352;48.626;9.238;2023-04-25T09:52:06;6.22;;;5.63;;
735;SDS011;352;48.626;9.238;2023-04-25T09:54:33;9.00;;;6.63;;
735;SDS011;352;48.626;9.238;2023-04-25T09:57:02;6.65;;;6.05;;
735;SDS011;352;48.626;9.238;2023-04-25T09:59:37;6.10;;;5.50;;
735;SDS011;352;48.626;9.238;2023-04-25T10:02:06;5.78;;;5.28;;
735;SDS011;352;48.626;9.238;2023-04-25T10:04:34;6.97;;;6.28;;
735;SDS011;352;48.626;9.238;2023-04-25T10:07:01;6.30;;;5.80;;
735;SDS011;352;48.626;9.238;2023-04-25T10:09:29;6.47;;;5.88;;
735;SDS011;352;48.626;9.238;2023-04-25T10:11:58;5.03;;;4.63;;
735;SDS011;352;48.626;9.238;2023-04-25T10:14:27;8.10;;;7.50;;
735;SDS011;352;48.626;9.238;2023-04-25T10:16:55;5.43;;;4.95;;
735;SDS011;352;48.626;9.238;2023-04-25T10:19:23;5.53;;;5.10;;
735;SDS011;352;48.626;9.238;2023-04-25T10:21:51;5.30;;;4.80;;
735;SDS011;352;48.626;9.238;2023-04-25T10:24:20;4.53;;;4.13;;
735;SDS011;352;48.626;9.238;2023-04-25T10:26:47;4.63;;;4.22;;
735;SDS011;352;48.626;9.238;2023-04-25T10:29:18;3.50;;;3.20;;
735;SDS011;352;48.626;9.238;2023-04-25T10:31:49;4.07;;;3.72;;
735;SDS011;352;48.626;9.238;2023-04-25T10:34:16;3.78;;;3.47;;
735;SDS011;352;48.626;9.238;2023-04-25T10:36:44;3.92;;;3.28;;
735;SDS011;352;48.626;9.238;2023-04-25T10:39:19;3.25;;;3.05;;
735;SDS011;352;48.626;9.238;2023-04-25T10:41:51;3.28;;;3.08;;
735;SDS011;352;48.626;9.238;2023-04-25T10:44:19;2.70;;;2.50;;
735;SDS011;352;48.626;9.238;2023-04-25T10:46:46;2.33;;;2.22;;
735;SDS011;352;48.626;9.238;2023-04-25T10:52:15;2.20;;;2.00;;
735;SDS011;352;48.626;9.238;2023-04-25T10:54:46;2.38;;;2.17;;
735;SDS011;352;48.626;9.238;2023-04-25T10:57:26;2.40;;;2.30;;
735;SDS011;352;48.626;9.238;2023-04-25T10:59:54;2.25;;;2.15;;
735;SDS011;352;48.626;9.238;2023-04-25T11:02:25;2.45;;;1.83;;
735;SDS011;352;48.626;9.238;2023-04-25T11:04:53;2.22;;;2.13;;
735;SDS011;352;48.626;9.238;2023-04-25T11:07:23;3.88;;;3.58;;
735;SDS011;352;48.626;9.238;2023-04-25T11:10:00;3.47;;;3.38;;
735;SDS011;352;48.626;9.238;2023-04-25T11:12:29;2.42;;;2.33;;
735;SDS011;352;48.626;9.238;2023-04-25T11:14:59;2.40;;;2.30;;
735;SDS011;352;48.626;9.238;2023-04-25T11:17:27;2.50;;;2.30;;
735;SDS011;352;48.626;9.238;2023-04-25T11:19:54;2.20;;;2.00;;
735;SDS011;352;48.626;9.238;2023-04-25T11:22:22;2.55;;;2.00;;
735;SDS011;352;48.626;9.238;2023-04-25T11:24:50;1.60;;;1.50;;
735;SDS011;352;48.626;9.238;2023-04-25T11:27:17;1.50;;;1.40;;
735;SDS011;352;48.626;9.238;2023-04-25T11:29:44;1.90;;;1.80;;
735;SDS011;352;48.626;9.238;2023-04-25T11:32:13;1.50;;;1.40;;
735;SDS011;352;48.626;9.238;2023-04-25T11:34:42;1.40;;;1.30;;
735;SDS011;352;48.626;9.238;2023-04-25T11:37:09;1.00;;;1.00;;
735;SDS011;352;48.626;9.238;2023-04-25T11:39:38;1.40;;;1.30;;
735;SDS011;352;48.626;9.238;2023-04-25T11:42:08;2.77;;;1.00;;
735;SDS011;352;48.626;9.238;2023-04-25T11:44:35;3.90;;;1.30;;
735;SDS011;352;48.626;9.238;2023-04-25T11:47:06;1.30;;;1.20;;
735;SDS011;352;48.626;9.238;2023-04-25T11:49:32;1.20;;;1.10;;
735;SDS011;352;48.626;9.238;2023-04-25T11:52:00;1.60;;;1.43;;
735;SDS011;352;48.626;9.238;2023-04-25T11:54:27;1.90;;;1.80;;
735;SDS011;352;48.626;9.238;2023-04-25T11:56:55;1.80;;;1.70;;
735;SDS011;352;48.626;9.238;2023-04-25T11:59:23;2.77;;;2.67;;
735;SDS011;352;48.626;9.238;2023-04-25T12:01:51;1.83;;;1.73;;
735;SDS011;352;48.626;9.238;2023-04-25T12:04:19;1.53;;;1.43;;
735;SDS011;352;48.626;9.238;2023-04-25T12:06:47;2.87;;;2.67;;
735;SDS011;352;48.626;9.238;2023-04-25T12:09:16;2.10;;;2.00;;
735;SDS011;352;48.626;9.238;2023-04-25T12:11:44;2.50;;;2.30;;
735;SDS011;352;48.626;9.238;2023-04-25T12:14:20;2.90;;;2.70;;
735;SDS011;352;48.626;9.238;2023-04-25T12:16:48;6.03;;;2.90;;
735;SDS011;352;48.626;9.238;2023-04-25T12:19:16;3.72;;;3.42;;
735;SDS011;352;48.626;9.238;2023-04-25T12:21:44;3.97;;;3.67;;
735;SDS011;352;48.626;9.238;2023-04-25T12:24:11;3.65;;;3.35;;
735;SDS011;352;48.626;9.238;2023-04-25T12:26:46;3.70;;;3.40;;
735;SDS011;352;48.626;9.238;2023-04-25T12:29:18;3.72;;;3.42;;
735;SDS011;352;48.626;9.238;2023-04-25T12:31:46;3.40;;;3.20;;
735;SDS011;352;48.626;9.238;2023-04-25T12:34:13;3.65;;;3.35;;
735;SDS011;352;48.626;9.238;2023-04-25T12:36:40;5.78;;;5.05;;
735;SDS011;352;48.626;9.238;2023-04-25T12:39:07;4.50;;;4.10;;
735;SDS011;352;48.626;9.238;2023-04-25T12:41:34;4.53;;;4.13;;
735;SDS011;352;48.626;9.238;2023-04-25T12:44:01;4.80;;;4.40;;
735;SDS011;352;48.626;9.238;2023-04-25T12:46:29;4.90;;;4.50;;
735;SDS011;352;48.626;9.238;2023-04-25T12:48:55;5.18;;;4.75;;
735;SDS011;352;48.626;9.238;2023-04-25T12:51:22;5.10;;;4.70;;
735;SDS011;352;48.626;9.238;2023-04-25T12:53:50;5.57;;;4.60;;
735;SDS011;352;48.626;9.238;2023-04-25T12:56:17;8.48;;;5.60;;
735;SDS011;352;48.626;9.238;2023-04-25T12:58:44;7.20;;;6.50;;
735;SDS011;352;48.626;9.238;2023-04-25T13:01:12;6.05;;;5.55;;
735;SDS011;352;48.626;9.238;2023-04-25T13:03:41;7.53;;;5.50;;
735;SDS011;352;48.626;9.238;2023-04-25T13:06:08;5.20;;;4.80;;
735;SDS011;352;48.626;9.238;2023-04-25T13:08:35;5.38;;;4.88;;
735;SDS011;352;48.626;9.238;2023-04-25T13:11:03;5.45;;;5.05;;
735;SDS011;352;48.626;9.238;2023-04-25T13:13:30;5.68;;;5.22;;
735;SDS011;352;48.626;9.238;2023-04-25T13:15:57;5.30;;;4.93;;
735;SDS011;352;48.626;9.238;2023-04-25T13:18:24;5.82;;;5.40;;
735;SDS011;352;48.626;9.238;2023-04-25T13:20:52;6.13;;;5.63;;
735;SDS011;352;48.626;9.238;2023-04-25T13:23:19;6.13;;;5.70;;
735;SDS011;352;48.626;9.238;2023-04-25T13:25:46;5.90;;;5.50;;
735;SDS011;352;48.626;9.238;2023-04-25T13:28:13;5.27;;;4.87;;
735;SDS011;352;48.626;9.238;2023-04-25T13:30:41;5.80;;;5.30;;
735;SDS011;352;48.626;9.238;2023-04-25T13:33:07;5.67;;;5.17;;
735;SDS011;352;48.626;9.238;2023-04-25T13:35:36;5.70;;;5.30;;
735;SDS011;352;48.626;9.238;2023-04-25T13:38:05;6.30;;;5.80;;
735;SDS011;352;48.626;9.238;2023-04-25T13:40:31;5.97;;;5.43;;
735;SDS011;352;48.626;9.238;2023-04-25T13:42:58;5.00;;;4.63;;
735;SDS011;352;48.626;9.238;2023-04-25T13:45:25;6.33;;;5.83;;
735;SDS011;352;48.626;9.238;2023-04-25T13:47:52;4.90;;;4.50;;
735;SDS011;352;48.626;9.238;2023-04-25T13:50:18;5.10;;;4.70;;
735;SDS011;352;48.626;9.238;2023-04-25T13:52:45;4.97;;;4.47;;
735;SDS011;352;48.626;9.238;2023-04-25T13:55:14;5.07;;;4.70;;
735;SDS011;352;48.626;9.238;2023-04-25T13:57:41;4.30;;;4.00;;
735;SDS011;352;48.626;9.238;2023-04-25T14:00:09;6.10;;;5.60;;
735;SDS011;352;48.626;9.238;2023-04-25T14:02:36;5.30;;;4.80;;
735;SDS011;352;48.626;9.238;2023-04-25T14:05:04;4.70;;;4.40;;
735;SDS011;352;48.626;9.238;2023-04-25T14:07:31;4.93;;;4.53;;
735;SDS011;352;48.626;9.238;2023-04-25T14:09:59;4.73;;;4.43;;
735;SDS011;352;48.626;9.238;2023-04-25T14:12:28;5.70;;;5.20;;
735;SDS011;352;48.626;9.238;2023-04-25T14:14:54;6.50;;;5.90;;
735;SDS011;352;48.626;9.238;2023-04-25T14:17:21;5.63;;;5.13;;
735;SDS011;352;48.626;9.238;2023-04-25T14:19:49;5.80;;;5.30;;
735;SDS011;352;48.626;9.238;2023-04-25T14:22:15;5.03;;;4.63;;
735;SDS011;352;48.626;9.238;2023-04-25T14:24:42;6.77;;;6.07;;
735;SDS011;352;48.626;9.238;2023-04-25T14:27:09;7.17;;;5.40;;
735;SDS011;352;48.626;9.238;2023-04-25T14:29:38;5.97;;;5.40;;
735;SDS011;352;48.626;9.238;2023-04-25T14:32:05;4.93;;;4.63;;
735;SDS011;352;48.626;9.238;2023-04-25T14:34:32;5.30;;;4.90;;
735;SDS011;352;48.626;9.238;2023-04-25T14:36:58;6.00;;;5.37;;
735;SDS011;352;48.626;9.238;2023-04-25T14:39:25;7.73;;;7.00;;
735;SDS011;352;48.626;9.238;2023-04-25T14:41:52;6.93;;;6.27;;
735;SDS011;352;48.626;9.238;2023-04-25T14:44:18;8.77;;;6.33;;
735;SDS011;352;48.626;9.238;2023-04-25T14:46:46;6.90;;;6.17;;
735;SDS011;352;48.626;9.238;2023-04-25T14:49:14;7.10;;;6.60;;
735;SDS011;352;48.626;9.238;2023-04-25T14:51:40;12.33;;;6.47;;
735;SDS011;352;48.626;9.238;2023-04-25T14:54:07;7.10;;;6.50;;
735;SDS011;352;48.626;9.238;2023-04-25T14:56:34;9.47;;;8.67;;
735;SDS011;352;48.626;9.238;2023-04-25T14:59:01;8.23;;;7.50;;
735;SDS011;352;48.626;9.238;2023-04-25T15:01:27;7.50;;;6.83;;
735;SDS011;352;48.626;9.238;2023-04-25T15:03:55;7.70;;;6.73;;
735;SDS011;352;48.626;9.238;2023-04-25T15:06:23;6.50;;;6.00;;
735;SDS011;352;48.626;9.238;2023-04-25T15:08:52;7.57;;;6.83;;
735;SDS011;352;48.626;9.238;2023-04-25T15:11:18;8.30;;;7.60;;
735;SDS011;352;48.626;9.238;2023-04-25T15:13:47;6.70;;;6.20;;
735;SDS011;352;48.626;9.238;2023-04-25T15:16:13;7.47;;;6.80;;
735;SDS011;352;48.626;9.238;2023-04-25T15:18:40;6.60;;;6.10;;
735;SDS011;352;48.626;9.238;2023-04-25T15:21:08;6.13;;;5.53;;
735;SDS011;352;48.626;9.238;2023-04-25T15:23:35;5.77;;;5.20;;
735;SDS011;352;48.626;9.238;2023-04-25T15:26:03;5.67;;;5.03;;
735;SDS011;352;48.626;9.238;2023-04-25T15:28:29;5.53;;;5.13;;
735;SDS011;352;48.626;9.238;2023-04-25T15:30:58;6.93;;;6.33;;
735;SDS011;352;48.626;9.238;2023-04-25T15:33:25;6.87;;;6.30;;
735;SDS011;352;48.626;9.238;2023-04-25T15:35:52;5.17;;;4.77;;
735;SDS011;352;48.626;9.238;2023-04-25T15:38:20;5.40;;;5.00;;
735;SDS011;352;48.626;9.238;2023-04-25T15:40:46;4.93;;;4.53;;
735;SDS011;352;48.626;9.238;2023-04-25T15:43:13;5.90;;;5.40;;
735;SDS011;352;48.626;9.238;2023-04-25T15:45:41;5.07;;;4.57;;
735;SDS011;352;48.626;9.238;2023-04-25T15:48:09;5.10;;;4.70;;
735;SDS011;352;48.626;9.238;2023-04-25T15:50:36;4.70;;;4.30;;